Terminal Aerodrome Forecast
Issued by NWS

Home | Current Version | Previous Version | Graphics & Text | Print | Product List | Glossary On
Versions: 1 2 3 4 5 6 7 8 9 10 11 12 13 14 15
273
FTUS43 KABR 131728
TAFPIR
TAF
KPIR 131728Z 1318/1418 33023G34KT P6SM SCT200
     FM140000 33013KT P6SM BKN120
     FM140500 33008KT P6SM BKN070
     FM141200 30010KT 4SM -SN OVC020
     FM141500 32013KT 2SM -SN OVC015
     FM141600 32015G23KT P6SM OVC015=

USA.gov is the U.S. government's official web portal to all federal, state and local government web resources and services.